createdAt,value
2023-05-20T00:00:00.255Z,100780.28
2023-05-20T00:02:27.445Z,100765.66
2023-05-20T00:04:54.293Z,100783.09
2023-05-20T00:07:24.171Z,100793.16
2023-05-20T00:09:53.036Z,100776.31
2023-05-20T00:12:23.276Z,100793.84
2023-05-20T00:14:53.954Z,100784.94
2023-05-20T00:17:24.043Z,100792.06
2023-05-20T00:19:50.722Z,100774.75
2023-05-20T00:22:17.310Z,100761.81
2023-05-20T00:24:44.179Z,100777.88
2023-05-20T00:27:12.011Z,100775.22
2023-05-20T00:29:39.021Z,100776.16
2023-05-20T00:32:06.146Z,100782.44
2023-05-20T00:34:32.877Z,100776.31
2023-05-20T00:37:01.770Z,100779.00
2023-05-20T00:39:31.167Z,100775.53
2023-05-20T00:42:01.826Z,100748.13
2023-05-20T00:44:28.438Z,100771.34
2023-05-20T00:46:56.945Z,100749.16
2023-05-20T00:49:24.111Z,100764.94
2023-05-20T00:51:53.853Z,100761.75
2023-05-20T00:54:22.382Z,100774.91
2023-05-20T00:56:49.757Z,100769.81
2023-05-20T00:59:18.952Z,100771.06
2023-05-20T01:01:46.244Z,100768.50
2023-05-20T01:04:14.504Z,100768.69
2023-05-20T01:06:41.715Z,100770.63
2023-05-20T01:09:08.598Z,100756.09
2023-05-20T01:11:53.431Z,100749.38
2023-05-20T01:14:22.663Z,100767.75
2023-05-20T01:16:52.367Z,100762.78
2023-05-20T01:19:34.275Z,100766.31
2023-05-20T01:22:06.756Z,100763.81
2023-05-20T01:24:33.846Z,100760.47
2023-05-20T01:27:00.620Z,100744.19
2023-05-20T01:29:28.353Z,100762.34
2023-05-20T01:31:57.246Z,100747.63
2023-05-20T01:34:26.092Z,100719.47
2023-05-20T01:36:54.693Z,100759.34
2023-05-20T01:39:21.783Z,100726.63
2023-05-20T01:41:52.293Z,100729.50
2023-05-20T01:44:37.601Z,100754.50
2023-05-20T01:47:05.492Z,100739.72
2023-05-20T01:49:33.612Z,100738.47
2023-05-20T01:52:00.486Z,100745.44
2023-05-20T01:54:27.238Z,100732.16
2023-05-20T01:56:54.257Z,100741.50
2023-05-20T01:59:21.110Z,100721.59
2023-05-20T02:01:51.138Z,100723.84
2023-05-20T02:04:30.449Z,100730.03
2023-05-20T02:06:57.353Z,100721.38
2023-05-20T02:09:24.573Z,100719.03
2023-05-20T02:11:53.570Z,100705.44
2023-05-20T02:14:20.402Z,100725.34
2023-05-20T02:16:48.075Z,100729.81
2023-05-20T02:19:19.963Z,100728.06
2023-05-20T02:21:50.279Z,100717.94
2023-05-20T02:24:21.859Z,100695.41
2023-05-20T02:26:51.520Z,100717.59
2023-05-20T02:29:18.250Z,100718.38
2023-05-20T02:31:45.074Z,100717.44
2023-05-20T02:34:15.981Z,100718.47
2023-05-20T02:36:45.291Z,100713.84
2023-05-20T02:41:53.298Z,100720.81
2023-05-20T02:44:20.015Z,100718.53
2023-05-20T02:46:48.134Z,100726.69
2023-05-20T02:49:20.346Z,100728.22
2023-05-20T02:51:47.123Z,100726.22
2023-05-20T02:54:17.283Z,100719.94
2023-05-20T02:56:43.954Z,100727.84
2023-05-20T02:59:11.777Z,100724.25
2023-05-20T03:01:41.145Z,100728.16
2023-05-20T03:04:11.884Z,100690.72
2023-05-20T03:06:38.646Z,100706.16
2023-05-20T03:09:06.458Z,100696.31
2023-05-20T03:11:35.268Z,100718.63
2023-05-20T03:14:02.799Z,100663.72
2023-05-20T03:16:30.134Z,100696.16
2023-05-20T03:18:59.205Z,100690.38
2023-05-20T03:21:27.040Z,100705.78
2023-05-20T03:23:56.264Z,100669.44
2023-05-20T03:26:25.940Z,100691.69
2023-05-20T03:28:54.195Z,100667.00
2023-05-20T03:31:21.233Z,100675.72
2023-05-20T03:33:50.128Z,100680.59
2023-05-20T03:36:18.059Z,100683.53
2023-05-20T03:38:45.433Z,100677.50
2023-05-20T03:41:12.134Z,100673.91
2023-05-20T03:43:38.778Z,100676.63
2023-05-20T03:46:07.448Z,100674.34
2023-05-20T03:48:35.348Z,100696.31
2023-05-20T03:51:02.087Z,100663.56
2023-05-20T03:53:28.957Z,100675.78
2023-05-20T03:55:56.523Z,100689.53
2023-05-20T03:58:23.690Z,100698.19
2023-05-20T04:00:51.239Z,100683.38
2023-05-20T04:03:20.067Z,100689.44
2023-05-20T04:05:47.661Z,100697.06
2023-05-20T04:08:14.693Z,100693.59
2023-05-20T04:10:43.102Z,100676.41
2023-05-20T04:13:12.438Z,100685.75
2023-05-20T04:15:40.148Z,100680.28
2023-05-20T04:18:07.072Z,100665.19
2023-05-20T04:20:36.563Z,100694.69
2023-05-20T04:23:05.579Z,100681.66
2023-05-20T04:25:33.426Z,100666.28
2023-05-20T04:28:02.169Z,100683.34
2023-05-20T04:30:30.724Z,100686.63
2023-05-20T04:32:57.646Z,100698.59
2023-05-20T04:35:29.787Z,100698.47
2023-05-20T04:38:05.663Z,100702.78
2023-05-20T04:40:33.753Z,100674.97
2023-05-20T04:46:05.618Z,100665.44
2023-05-20T04:48:35.485Z,100687.38
2023-05-20T04:51:10.705Z,100686.19
2023-05-20T04:53:37.687Z,100685.66
2023-05-20T04:56:06.224Z,100692.88
2023-05-20T04:58:36.937Z,100689.19
2023-05-20T05:01:10.449Z,100660.06
2023-05-20T05:03:37.237Z,100686.38
2023-05-20T05:06:07.089Z,100682.69
2023-05-20T05:08:44.796Z,100679.50
2023-05-20T05:13:54.207Z,100672.34
2023-05-20T05:16:23.144Z,100641.34
2023-05-20T05:18:49.897Z,100671.69
2023-05-20T05:21:16.897Z,100675.00
2023-05-20T05:23:44.129Z,100670.44
2023-05-20T05:26:11.941Z,100666.34
2023-05-20T05:31:24.345Z,100666.25
2023-05-20T05:33:52.221Z,100672.84
2023-05-20T05:36:22.107Z,100663.16
2023-05-20T05:38:53.946Z,100647.91
2023-05-20T05:41:21.789Z,100654.56
2023-05-20T05:43:49.505Z,100657.41
2023-05-20T05:46:16.706Z,100646.28
2023-05-20T05:48:46.154Z,100655.31
2023-05-20T05:51:13.552Z,100662.97
2023-05-20T05:53:45.357Z,100638.47
2023-05-20T05:56:15.861Z,100651.34
2023-05-20T05:58:43.379Z,100652.50
2023-05-20T06:03:56.576Z,100648.50
2023-05-20T06:06:24.125Z,100650.09
2023-05-20T06:08:51.043Z,100639.75
2023-05-20T06:11:18.202Z,100666.97
2023-05-20T06:13:47.575Z,100661.06
2023-05-20T06:16:24.350Z,100659.09
2023-05-20T06:18:54.622Z,100654.59
2023-05-20T06:21:24.635Z,100613.63
2023-05-20T06:23:51.577Z,100657.94
2023-05-20T06:26:20.582Z,100651.16
2023-05-20T06:28:52.308Z,100649.44
2023-05-20T06:31:20.158Z,100645.81
2023-05-20T06:33:47.921Z,100657.34
2023-05-20T06:36:19.318Z,100641.22
2023-05-20T06:38:46.119Z,100641.63
2023-05-20T06:41:13.943Z,100651.16
2023-05-20T06:43:48.299Z,100638.88
2023-05-20T06:46:17.535Z,100650.09
2023-05-20T06:48:46.149Z,100639.31
2023-05-20T06:51:14.598Z,100651.25
2023-05-20T06:53:41.632Z,100651.84
2023-05-20T06:58:53.625Z,100620.06
2023-05-20T07:01:22.308Z,100650.25
2023-05-20T07:03:49.380Z,100634.59
2023-05-20T07:06:22.277Z,100638.50
2023-05-20T07:08:53.386Z,100618.75
2023-05-20T07:11:21.456Z,100649.25
2023-05-20T07:13:54.157Z,100641.56
2023-05-20T07:16:28.801Z,100643.91
2023-05-20T07:21:39.660Z,100628.31
2023-05-20T07:24:09.530Z,100575.16
2023-05-20T07:29:22.886Z,100636.22
2023-05-20T07:32:08.807Z,100629.53
2023-05-20T07:34:37.545Z,100630.84
2023-05-20T07:37:08.610Z,100627.81
2023-05-20T07:42:53.404Z,100611.66
2023-05-20T07:45:20.412Z,100600.94
2023-05-20T07:47:48.633Z,100592.47
2023-05-20T07:53:04.446Z,100566.16
2023-05-20T07:55:34.692Z,100586.81
2023-05-20T08:00:48.022Z,100592.59
2023-05-20T08:03:20.200Z,100583.16
2023-05-20T08:05:46.913Z,100585.41
2023-05-20T08:08:16.676Z,100586.47
2023-05-20T08:13:28.725Z,100590.25
2023-05-20T08:18:39.779Z,100595.06
2023-05-20T08:21:10.292Z,100577.66
2023-05-20T08:26:19.595Z,100587.16
2023-05-20T08:34:15.016Z,100600.25
2023-05-20T08:36:44.965Z,100588.66
2023-05-20T08:39:21.556Z,100560.25
2023-05-20T08:41:54.477Z,100587.00
2023-05-20T08:44:29.903Z,100566.72
2023-05-20T08:46:59.248Z,100557.06
2023-05-20T08:49:35.892Z,100569.03
2023-05-20T08:52:04.675Z,100579.91
2023-05-20T08:54:58.599Z,100583.78
2023-05-20T08:57:29.331Z,100540.59
2023-05-20T09:02:46.768Z,100584.03
2023-05-20T09:05:14.765Z,100590.38
2023-05-20T09:10:37.533Z,100569.91
2023-05-20T09:13:15.783Z,100580.38
2023-05-20T09:15:50.030Z,100578.41
2023-05-20T09:18:23.600Z,100583.88
2023-05-20T09:21:29.614Z,100561.94
2023-05-20T09:24:11.424Z,100580.13
2023-05-20T09:26:43.087Z,100548.66
2023-05-20T09:29:23.898Z,100585.25
2023-05-20T09:32:17.384Z,100570.88
2023-05-20T09:35:04.468Z,100569.16
2023-05-20T09:40:21.712Z,100555.25
2023-05-20T09:43:14.873Z,100568.53
2023-05-20T09:45:45.229Z,100576.81
2023-05-20T09:51:16.065Z,100570.38
2023-05-20T09:53:52.569Z,100562.69
2023-05-20T09:56:33.868Z,100555.00
2023-05-20T09:59:09.008Z,100535.81
2023-05-20T10:01:38.062Z,100561.16
2023-05-20T10:04:08.734Z,100543.13
2023-05-20T10:07:15.625Z,100550.34
2023-05-20T10:10:20.184Z,100569.88
2023-05-20T10:13:20.524Z,100562.91
2023-05-20T10:16:28.850Z,100553.72
2023-05-20T10:21:45.310Z,100564.47
2023-05-20T10:24:14.714Z,100554.44
2023-05-20T10:26:43.130Z,100530.44
2023-05-20T10:29:20.202Z,100512.34
2023-05-20T10:32:10.050Z,100554.09
2023-05-20T10:37:50.233Z,100532.56
2023-05-20T10:40:23.057Z,100526.66
2023-05-20T10:42:53.069Z,100513.81
2023-05-20T10:45:39.952Z,100541.75
2023-05-20T10:48:07.322Z,100534.16
2023-05-20T10:50:37.658Z,100523.16
2023-05-20T10:53:34.577Z,100519.84
2023-05-20T10:56:03.062Z,100527.50
2023-05-20T10:58:41.206Z,100504.69
2023-05-20T11:01:08.238Z,100501.19
2023-05-20T11:03:45.821Z,100504.28
2023-05-20T11:09:31.493Z,100526.50
2023-05-20T11:11:58.839Z,100507.59
2023-05-20T11:14:28.892Z,100502.81
2023-05-20T11:19:43.183Z,100502.53
2023-05-20T11:25:07.332Z,100491.00
2023-05-20T11:30:28.298Z,100477.44
2023-05-20T11:33:14.581Z,100495.00
2023-05-20T11:35:57.789Z,100487.22
2023-05-20T11:38:24.857Z,100490.47
2023-05-20T11:41:00.157Z,100502.47
2023-05-20T11:46:10.793Z,100487.88
2023-05-20T11:54:20.566Z,100475.03
2023-05-20T11:56:47.292Z,100456.25
2023-05-20T11:59:15.522Z,100462.00
2023-05-20T12:01:44.639Z,100472.34
2023-05-20T12:04:21.024Z,100476.88
2023-05-20T12:06:57.876Z,100461.56
2023-05-20T12:09:27.264Z,100464.56
2023-05-20T12:12:00.629Z,100462.44
2023-05-20T12:14:43.241Z,100473.63
2023-05-20T12:17:20.447Z,100469.97
2023-05-20T12:19:48.841Z,100475.63
2023-05-20T12:22:30.027Z,100440.44
2023-05-20T12:27:40.816Z,100458.03
2023-05-20T12:30:24.583Z,100464.53
2023-05-20T12:35:44.202Z,100471.69
2023-05-20T12:38:13.387Z,100474.91
2023-05-20T12:40:43.040Z,100454.94
2023-05-20T12:45:56.082Z,100458.69
2023-05-20T12:48:29.889Z,100467.69
2023-05-20T12:50:57.108Z,100469.53
2023-05-20T12:53:29.680Z,100457.38
2023-05-20T12:55:59.821Z,100463.38
2023-05-20T12:58:33.961Z,100457.19
2023-05-20T13:01:12.566Z,100436.06
2023-05-20T13:09:20.455Z,100412.09
2023-05-20T13:11:56.997Z,100437.06
2023-05-20T13:20:01.456Z,100448.78
2023-05-20T13:22:38.685Z,100439.16
2023-05-20T13:25:09.748Z,100435.03
2023-05-20T13:30:25.549Z,100431.00
2023-05-20T13:32:52.645Z,100423.25
2023-05-20T13:35:23.400Z,100429.34
2023-05-20T13:38:09.982Z,100432.47
2023-05-20T13:43:29.322Z,100430.34
2023-05-20T13:53:24.371Z,100412.41
2023-05-20T14:04:09.652Z,100413.56
2023-05-20T14:06:49.110Z,100392.00
2023-05-20T14:12:00.304Z,100394.03
2023-05-20T14:19:51.115Z,100366.25
2023-05-20T14:30:53.268Z,100371.31
2023-05-20T14:41:55.901Z,100375.19
2023-05-20T14:44:44.019Z,100372.75
2023-05-20T15:04:55.704Z,100367.81
2023-05-20T15:07:29.802Z,100363.47
2023-05-20T15:19:13.228Z,100347.84
2023-05-20T15:21:45.257Z,100358.34
2023-05-20T15:27:12.407Z,100345.56
2023-05-20T15:39:22.049Z,100338.78
2023-05-20T15:41:54.647Z,100323.34
2023-05-20T16:09:52.255Z,100331.66
2023-05-20T16:12:31.258Z,100340.41
2023-05-20T16:21:40.580Z,100348.91
2023-05-20T16:24:15.011Z,100336.75
2023-05-20T16:26:42.009Z,100346.22
2023-05-20T16:29:18.785Z,100340.28
2023-05-20T16:40:08.533Z,100323.69
2023-05-20T16:48:13.041Z,100334.75
2023-05-20T16:50:40.153Z,100327.03
2023-05-20T16:53:07.524Z,100308.09
2023-05-20T16:58:16.111Z,100337.19
2023-05-20T17:00:46.457Z,100340.81
2023-05-20T17:03:25.167Z,100349.94
2023-05-20T17:06:16.202Z,100326.09
2023-05-20T17:08:51.330Z,100356.00
2023-05-20T17:11:20.020Z,100350.63
2023-05-20T17:13:47.067Z,100349.19
2023-05-20T17:24:28.899Z,100342.78
2023-05-20T17:32:58.334Z,100358.69
2023-05-20T17:35:26.471Z,100360.63
2023-05-20T17:37:55.785Z,100363.09
2023-05-20T17:43:19.002Z,100366.34
2023-05-20T17:48:29.329Z,100369.44
2023-05-20T17:53:45.884Z,100381.19
2023-05-20T18:01:49.299Z,100382.69
2023-05-20T18:04:17.891Z,100389.63
2023-05-20T18:06:46.780Z,100386.34
2023-05-20T18:14:37.807Z,100386.50
2023-05-20T18:19:49.893Z,100364.78
2023-05-20T18:22:17.234Z,100376.59
2023-05-20T18:30:47.330Z,100378.31
2023-05-20T18:39:24.445Z,100355.75
2023-05-20T18:41:54.197Z,100382.44
2023-05-20T18:44:24.406Z,100388.66
2023-05-20T18:49:43.717Z,100372.81
2023-05-20T19:07:46.508Z,100372.16
2023-05-20T19:12:57.991Z,100361.25
2023-05-20T19:18:09.294Z,100343.63
2023-05-20T19:20:51.480Z,100364.25
2023-05-20T19:25:59.922Z,100382.38
2023-05-20T19:31:31.167Z,100380.06
2023-05-20T19:33:58.131Z,100381.16
2023-05-20T19:36:30.123Z,100374.88
2023-05-20T19:38:58.392Z,100377.31
2023-05-20T19:41:25.258Z,100391.91
2023-05-20T19:43:53.487Z,100382.31
2023-05-20T19:46:25.077Z,100384.16
2023-05-20T19:49:02.557Z,100392.50
2023-05-20T19:51:36.425Z,100392.00
2023-05-20T19:56:53.496Z,100391.25
2023-05-20T19:59:23.042Z,100391.25
2023-05-20T20:04:39.487Z,100377.81
2023-05-20T20:07:27.031Z,100393.53
2023-05-20T20:10:02.406Z,100366.44
2023-05-20T20:15:17.135Z,100385.84
2023-05-20T20:20:59.787Z,100390.19
2023-05-20T20:23:31.137Z,100377.13
2023-05-20T20:28:50.571Z,100385.59
2023-05-20T20:39:41.665Z,100374.50
2023-05-20T20:42:19.328Z,100360.06
2023-05-20T20:45:26.491Z,100366.38
2023-05-20T20:47:56.462Z,100379.22
2023-05-20T20:50:26.183Z,100376.66
2023-05-20T20:52:57.838Z,100366.28
2023-05-20T20:58:28.390Z,100368.09
2023-05-20T21:01:06.868Z,100332.97
2023-05-20T21:03:40.400Z,100364.72
2023-05-20T21:06:08.124Z,100363.59
2023-05-20T21:08:36.638Z,100353.28
2023-05-20T21:11:05.611Z,100361.50
2023-05-20T21:14:09.992Z,100343.19
2023-05-20T21:19:21.265Z,100332.72
2023-05-20T21:22:04.198Z,100342.69
2023-05-20T21:24:55.306Z,100343.94
2023-05-20T21:27:21.901Z,100340.72
2023-05-20T21:29:51.534Z,100346.81
2023-05-20T21:32:18.408Z,100347.69
2023-05-20T21:34:45.861Z,100343.66
2023-05-20T21:37:12.791Z,100334.25
2023-05-20T21:39:53.894Z,100323.28
2023-05-20T21:42:28.997Z,100335.84
2023-05-20T21:44:57.590Z,100340.56
2023-05-20T21:47:26.893Z,100338.63
2023-05-20T21:49:55.139Z,100345.22
2023-05-20T21:55:02.424Z,100314.72
2023-05-20T21:57:29.504Z,100325.47
2023-05-20T21:59:56.455Z,100324.63
2023-05-20T22:02:23.499Z,100302.00
2023-05-20T22:04:54.258Z,100305.75
2023-05-20T22:07:20.923Z,100314.41
2023-05-20T22:09:49.439Z,100323.50
2023-05-20T22:12:24.060Z,100320.72
2023-05-20T22:14:54.154Z,100314.94
2023-05-20T22:17:27.985Z,100314.28
2023-05-20T22:20:00.722Z,100318.88
2023-05-20T22:25:14.855Z,100312.94
2023-05-20T22:27:45.788Z,100301.28
2023-05-20T22:30:20.357Z,100301.78
2023-05-20T22:32:49.482Z,100285.69
2023-05-20T22:35:17.566Z,100297.22
2023-05-20T22:38:00.220Z,100259.44
2023-05-20T22:40:28.049Z,100276.75
2023-05-20T22:43:00.564Z,100282.59
2023-05-20T22:48:12.628Z,100283.47
2023-05-20T22:53:23.228Z,100278.88
2023-05-20T22:55:56.504Z,100264.38
2023-05-20T22:58:41.198Z,100278.34
2023-05-20T23:01:11.064Z,100242.16
2023-05-20T23:03:43.384Z,100270.31
2023-05-20T23:06:16.737Z,100258.38
2023-05-20T23:08:51.367Z,100255.16
2023-05-20T23:11:18.791Z,100247.25
2023-05-20T23:13:49.492Z,100242.00
2023-05-20T23:16:16.224Z,100251.56
2023-05-20T23:18:47.355Z,100241.09
2023-05-20T23:21:17.390Z,100244.72
2023-05-20T23:23:45.103Z,100227.72
2023-05-20T23:26:13.746Z,100211.19
